Time;durP1;ratioP1;P1;durP2;ratioP2;P2;SDS_P1;SDS_P2;PMS_P1;PMS_P2;Temp;Humidity;BMP_temperature;BMP_pressure;BME280_temperature;BME280_humidity;BME280_pressure;Samples;Min_cycle;Max_cycle;Signal;HPM_P1;HPM_P2
2024/04/02 00:00:45;;;;;;;9.63;3.40;;;6.50;95.50;;;;;;5111236;28;20052;-49
2024/04/02 00:03:12;;;;;;;6.88;3.08;;;6.80;97.70;;;;;;5097980;28;20105;-54
2024/04/02 00:05:39;;;;;;;9.68;3.50;;;6.60;95.60;;;;;;5109407;28;20035;-52
2024/04/02 00:08:06;;;;;;;7.85;3.55;;;6.60;95.90;;;;;;5098221;28;20040;-50
2024/04/02 00:10:34;;;;;;;8.18;3.10;;;6.50;95.80;;;;;;5124293;27;20069;-54
2024/04/02 00:13:00;;;;;;;5.75;3.38;;;6.50;96.10;;;;;;5097915;28;20510;-54
2024/04/02 00:15:25;;;;;;;;;;;6.50;96.40;;;;;;5104323;28;20044;-51
2024/04/02 00:17:53;;;;;;;8.63;2.78;;;6.30;98.40;;;;;;5104449;28;19924;-55
2024/04/02 00:20:20;;;;;;;8.82;3.10;;;6.50;96.50;;;;;;5089950;28;20040;-52
2024/04/02 00:22:45;;;;;;;5.60;3.30;;;6.70;98.90;;;;;;5122101;27;20043;-57
2024/04/02 00:25:11;;;;;;;;;;;6.80;97.10;;;;;;5115150;27;20048;-51
2024/04/02 00:27:37;;;;;;;6.75;3.22;;;5.80;99.40;;;;;;5102413;28;19916;-56
2024/04/02 00:30:04;;;;;;;6.75;3.00;;;7.40;97.80;;;;;;5096291;28;20067;-53
2024/04/02 00:32:30;;;;;;;7.47;3.50;;;6.50;97.30;;;;;;5099634;28;20052;-56
2024/04/02 00:34:56;;;;;;;6.90;3.35;;;6.50;97.40;;;;;;5108239;28;20036;-51
2024/04/02 00:37:21;;;;;;;;;;;6.50;97.50;;;;;;5092843;28;20055;-52
2024/04/02 00:39:48;;;;;;;6.93;2.85;;;6.30;99.70;;;;;;5098551;28;19926;-53
2024/04/02 00:42:14;;;;;;;7.25;3.17;;;7.40;99.70;;;;;;5109889;28;20047;-59
2024/04/02 00:44:40;;;;;;;;;;;6.40;97.50;;;;;;5105135;28;20048;-53
2024/04/02 00:47:08;;;;;;;5.85;3.15;;;6.70;97.70;;;;;;5105279;28;19919;-55
2024/04/02 00:49:34;;;;;;;7.00;2.53;;;6.40;97.40;;;;;;5090087;28;20495;-51
2024/04/02 00:52:00;;;;;;;;;;;6.40;97.60;;;;;;5109312;28;20039;-53
2024/04/02 00:54:26;;;;;;;5.93;2.60;;;6.40;99.80;;;;;;5097060;28;19927;-53
2024/04/02 00:56:52;;;;;;;5.95;2.92;;;6.40;97.80;;;;;;5120437;27;20062;-49
2024/04/02 00:59:18;;;;;;;;;;;6.70;97.50;;;;;;5099637;28;20043;-52
2024/04/02 01:01:43;;;;;;;9.38;2.85;;;6.50;97.50;;;;;;5123468;27;20467;-58
2024/04/02 01:04:10;;;;;;;;;;;6.60;97.30;;;;;;5093394;28;20052;-48
2024/04/02 01:06:37;;;;;;;7.32;3.00;;;6.60;97.80;;;;;;5078736;28;19924;-51
2024/04/02 01:09:04;;;;;;;6.97;2.70;;;6.70;97.50;;;;;;5087484;28;20044;-53
2024/04/02 01:11:32;;;;;;;8.27;3.20;;;6.80;97.80;;;;;;5106699;28;20044;-59
2024/04/02 01:13:58;;;;;;;7.00;3.03;;;6.80;99.70;;;;;;5103125;28;20044;-49
2024/04/02 01:16:23;;;;;;;;;;;6.90;97.80;;;;;;5109185;28;20052;-55
2024/04/02 01:18:49;;;;;;;;;;;7.00;98.40;;;;;;5096139;28;19932;-51
2024/04/02 01:21:15;;;;;;;;;;;7.20;99.90;;;;;;5103516;28;19924;-51
2024/04/02 01:23:41;;;;;;;10.73;3.13;;;7.20;99.40;;;;;;5099672;28;19920;-51
2024/04/02 01:26:06;;;;;;;;;;;7.30;99.60;;;;;;5123272;27;20118;-54
2024/04/02 01:28:32;;;;;;;7.20;2.47;;;;;;;;;;5097473;28;20339;-56
2024/04/02 01:30:58;;;;;;;;;;;7.40;99.80;;;;;;5106483;28;20043;-48
2024/04/02 01:33:23;;;;;;;8.43;2.95;;;7.30;99.90;;;;;;5109459;28;20034;-55
2024/04/02 01:35:49;;;;;;;;;;;7.50;99.90;;;;;;5095281;28;20458;-54
2024/04/02 01:38:15;;;;;;;7.78;3.00;;;8.60;99.90;;;;;;5109693;28;19920;-55
2024/04/02 01:40:41;;;;;;;13.27;3.75;;;7.40;99.90;;;;;;5101558;28;20079;-52
2024/04/02 01:43:07;;;;;;;;;;;7.70;99.90;;;;;;5097281;28;20048;-51
2024/04/02 01:45:32;;;;;;;7.22;2.70;;;7.70;99.90;;;;;;5098762;28;19927;-54
2024/04/02 01:47:58;;;;;;;;;;;7.80;99.90;;;;;;5096346;28;20036;-50
2024/04/02 01:50:24;;;;;;;7.40;2.78;;;7.80;99.90;;;;;;5097621;28;19923;-58
2024/04/02 01:52:49;;;;;;;;;;;7.80;99.90;;;;;;5101281;28;20059;-59
2024/04/02 01:55:15;;;;;;;8.23;2.67;;;7.80;99.90;;;;;;5104235;28;20144;-50
2024/04/02 01:57:40;;;;;;;;;;;8.10;99.90;;;;;;5103775;28;20403;-54
2024/04/02 02:00:06;;;;;;;11.75;3.00;;;8.60;99.90;;;;;;5106919;28;19990;-49
2024/04/02 02:02:32;;;;;;;9.48;2.67;;;7.90;99.90;;;;;;5099979;28;20171;-52
2024/04/02 02:04:57;;;;;;;;;;;8.00;99.90;;;;;;5122426;28;20132;-51
2024/04/02 02:07:23;;;;;;;8.90;2.47;;;8.00;99.90;;;;;;5099205;28;20259;-54
2024/04/02 02:09:49;;;;;;;;;;;8.40;99.90;;;;;;5101100;28;20063;-57
2024/04/02 02:12:14;;;;;;;7.40;2.70;;;8.00;99.90;;;;;;5103953;28;20394;-55
2024/04/02 02:14:40;;;;;;;;;;;8.00;99.90;;;;;;5107014;28;20036;-52
2024/04/02 02:17:05;;;;;;;8.77;3.03;;;8.10;99.90;;;;;;5110562;28;20320;-53
2024/04/02 02:19:31;;;;;;;;;;;8.00;99.90;;;;;;5107608;28;20043;-51
2024/04/02 02:21:56;;;;;;;8.73;2.85;;;8.70;99.90;;;;;;5095301;28;20387;-54
2024/04/02 02:24:22;;;;;;;;;;;7.90;99.90;;;;;;5124973;28;20403;-52
2024/04/02 02:26:47;;;;;;;7.22;2.83;;;7.90;99.90;;;;;;5083767;28;20056;-52
2024/04/02 02:29:13;;;;;;;;;;;8.00;99.90;;;;;;5106725;28;20130;-49
2024/04/02 02:31:39;;;;;;;8.88;2.95;;;7.70;99.90;;;;;;5084243;28;20400;-52
2024/04/02 02:34:04;;;;;;;;;;;7.60;99.90;;;;;;5103506;28;20049;-53
2024/04/02 02:36:31;;;;;;;12.88;3.30;;;7.60;99.90;;;;;;5100792;28;19924;-52
2024/04/02 02:38:56;;;;;;;6.93;3.03;;;7.50;99.90;;;;;;5090374;28;20384;-53
2024/04/02 02:41:22;;;;;;;;;;;7.50;99.90;;;;;;5108474;28;20198;-53
2024/04/02 02:43:48;;;;;;;9.48;4.30;;;6.60;99.90;;;;;;5105698;28;20396;-52
2024/04/02 02:46:14;;;;;;;13.13;5.22;;;7.80;99.90;;;;;;5110128;28;20168;-50
2024/04/02 02:48:39;;;;;;;;;;;7.40;99.90;;;;;;5114701;28;20080;-54
2024/04/02 02:51:05;;;;;;;15.27;6.05;;;7.20;99.90;;;;;;5106928;28;19919;-52
2024/04/02 02:53:30;;;;;;;;;;;7.40;99.90;;;;;;5128604;27;20100;-51
2024/04/02 02:55:58;;;;;;;15.68;6.47;;;7.30;99.90;;;;;;5080852;28;20434;-48
2024/04/02 02:58:23;;;;;;;15.57;6.45;;;7.30;99.90;;;;;;5092700;28;20052;-55
2024/04/02 03:00:49;;;;;;;;;;;7.30;99.90;;;;;;5112411;28;20470;-59
2024/04/02 03:03:15;;;;;;;18.58;7.63;;;9.30;99.90;;;;;;5103755;28;19971;-54
2024/04/02 03:05:41;;;;;;;;;;;7.30;99.90;;;;;;5106227;28;20497;-53
2024/04/02 03:08:07;;;;;;;13.68;7.10;;;7.30;99.90;;;;;;5110376;28;19920;-50
2024/04/02 03:10:33;;;;;;;;;;;7.30;99.90;;;;;;5109990;28;20046;-53
2024/04/02 03:12:58;;;;;;;17.33;7.85;;;7.30;99.90;;;;;;5103440;28;19920;-54
2024/04/02 03:15:24;;;;;;;;;;;7.40;99.90;;;;;;5124586;27;20052;-49
2024/04/02 03:17:49;;;;;;;18.05;7.22;;;7.30;99.90;;;;;;5099089;28;19964;-52
2024/04/02 03:20:15;;;;;;;;;;;7.30;99.90;;;;;;5091208;28;20044;-50
2024/04/02 03:22:41;;;;;;;;;;;7.30;99.90;;;;;;5110366;28;20022;-51
2024/04/02 03:25:06;;;;;;;14.68;7.50;;;6.60;99.90;;;;;;5100810;28;19920;-53
2024/04/02 03:27:33;;;;;;;;;;;7.20;99.90;;;;;;5098164;28;20056;-52
2024/04/02 03:30:04;;;;;;;13.80;7.13;;;6.70;99.90;;;;;;5110382;28;20010;-50
2024/04/02 03:32:29;;;;;;;14.63;6.85;;;7.20;99.90;;;;;;5109691;28;20493;-54
2024/04/02 03:34:55;;;;;;;;;;;7.10;99.90;;;;;;5098340;28;20036;-52
2024/04/02 03:37:20;;;;;;;14.20;6.60;;;7.40;99.90;;;;;;5102459;28;19982;-55
2024/04/02 03:39:46;;;;;;;;;;;7.10;99.90;;;;;;5103591;28;20135;-50
2024/04/02 03:42:11;;;;;;;14.50;7.00;;;7.30;99.90;;;;;;5111372;28;19931;-56
2024/04/02 03:44:37;;;;;;;;;;;7.10;99.90;;;;;;5108419;28;20474;-54
2024/04/02 03:47:02;;;;;;;;;;;7.00;99.90;;;;;;5104522;28;20015;-55
2024/04/02 03:49:28;;;;;;;;;;;7.00;99.90;;;;;;5106497;28;20346;-49
2024/04/02 03:51:54;;;;;;;13.18;7.10;;;;;;;;;;5107532;28;19959;-54
2024/04/02 03:54:19;;;;;;;;;;;6.00;99.90;;;;;;5110959;28;20399;-52
2024/04/02 03:56:46;;;;;;;14.23;6.85;;;7.80;99.90;;;;;;5097987;28;19920;-48
2024/04/02 03:59:12;;;;;;;13.45;7.00;;;7.10;99.90;;;;;;5082851;28;20058;-51
2024/04/02 04:01:38;;;;;;;;;;;7.10;99.90;;;;;;5097203;28;20048;-51
2024/04/02 04:04:03;;;;;;;14.40;6.35;;;7.10;99.90;;;;;;5108993;28;19920;-54
2024/04/02 04:06:29;;;;;;;;;;;7.10;99.90;;;;;;5103680;28;20067;-48
2024/04/02 04:08:55;;;;;;;13.40;6.50;;;7.10;99.90;;;;;;5108137;28;19977;-53
2024/04/02 04:11:20;;;;;;;;;;;7.10;99.90;;;;;;5104100;28;20055;-56
2024/04/02 04:13:46;;;;;;;15.52;6.05;;;7.10;99.90;;;;;;5097738;28;19942;-50
2024/04/02 04:16:11;;;;;;;;;;;7.10;99.90;;;;;;5099467;28;20138;-54
2024/04/02 04:18:37;;;;;;;;;;;7.00;99.90;;;;;;5111010;28;19927;-52
2024/04/02 04:21:02;;;;;;;;;;;7.00;99.90;;;;;;5105020;28;20002;-56
2024/04/02 04:23:28;;;;;;;;;;;7.00;99.90;;;;;;5098676;28;20054;-48
2024/04/02 04:26:02;;;;;;;12.15;5.68;;;7.00;99.90;;;;;;5091884;28;20298;-49
2024/04/02 04:28:30;;;;;;;11.32;6.07;;;5.80;99.90;;;;;;5123131;27;20079;-48
2024/04/02 04:31:00;;;;;;;10.32;5.78;;;9.30;99.90;;;;;;5100104;28;20403;-56
2024/04/02 04:33:26;;;;;;;10.90;6.20;;;7.00;99.90;;;;;;5091882;28;20040;-53
2024/04/02 04:35:53;;;;;;;14.60;6.15;;;7.40;99.90;;;;;;5125139;27;20097;-53
2024/04/02 04:38:19;;;;;;;15.48;6.68;;;6.70;99.90;;;;;;5101426;28;20376;-51
2024/04/02 04:40:46;;;;;;;14.35;5.80;;;7.10;99.90;;;;;;5091307;28;20371;-50
2024/04/02 04:43:13;;;;;;;12.07;6.35;;;7.10;99.90;;;;;;5095691;28;20059;-52
2024/04/02 04:45:39;;;;;;;10.45;5.47;;;8.40;99.90;;;;;;5106731;28;20054;-51
2024/04/02 04:48:05;;;;;;;;;;;7.00;99.90;;;;;;5087757;28;20128;-53
2024/04/02 04:50:30;;;;;;;10.50;5.57;;;7.00;99.90;;;;;;5104049;28;19974;-55
2024/04/02 04:52:56;;;;;;;;;;;7.10;99.90;;;;;;5108487;28;20502;-51
2024/04/02 04:55:21;;;;;;;9.98;5.43;;;6.90;99.90;;;;;;5089174;28;19923;-56
2024/04/02 04:57:47;;;;;;;;;;;7.10;99.90;;;;;;5093753;28;20113;-56
2024/04/02 05:00:13;;;;;;;13.60;5.65;;;7.60;99.90;;;;;;5110237;28;19935;-61
2024/04/02 05:02:38;;;;;;;;;;;7.10;99.90;;;;;;5109433;28;20048;-59
2024/04/02 05:05:13;;;;;;;13.18;5.97;;;7.10;99.90;;;;;;5107385;28;19977;-49
2024/04/02 05:08:25;;;;;;;12.63;5.80;;;7.50;99.90;;;;;;5108525;28;20082;-50
2024/04/02 05:10:51;;;;;;;9.80;5.63;;;6.80;99.90;;;;;;5108496;28;20043;-62
2024/04/02 05:13:18;;;;;;;13.20;6.10;;;7.30;99.90;;;;;;5109361;28;20050;-62
2024/04/02 05:15:44;;;;;;;13.05;6.03;;;6.20;99.90;;;;;;5110892;28;20050;-62
2024/04/02 05:18:10;;;;;;;;;;;7.20;99.90;;;;;;5109792;28;20047;-61
2024/04/02 05:20:35;;;;;;;10.90;5.80;;;6.90;99.90;;;;;;5109585;28;19920;-61
2024/04/02 05:23:01;;;;;;;;;;;7.20;99.90;;;;;;5111331;28;20044;-61
2024/04/02 05:25:27;;;;;;;14.48;6.20;;;7.10;99.90;;;;;;5109465;28;20242;-61
2024/04/02 05:27:52;;;;;;;;;;;7.20;99.90;;;;;;5108555;28;20050;-62
2024/04/02 05:30:18;;;;;;;10.68;5.40;;;10.50;99.90;;;;;;5096704;28;19924;-61
2024/04/02 05:32:44;;;;;;;;;;;7.70;99.90;;;;;;5109310;28;20082;-61
2024/04/02 05:35:09;;;;;;;13.68;5.68;;;7.30;99.90;;;;;;5110633;28;19923;-60
2024/04/02 05:37:35;;;;;;;;;;;7.40;99.90;;;;;;5109360;28;20055;-61
2024/04/02 05:40:04;;;;;;;10.88;5.50;;;7.40;99.90;;;;;;5109364;28;19978;-60
2024/04/02 05:42:31;;;;;;;11.35;5.93;;;7.10;99.90;;;;;;5109394;28;20084;-61
2024/04/02 05:44:56;;;;;;;13.27;5.90;;;7.80;99.90;;;;;;5106169;28;20047;-62
2024/04/02 05:47:22;;;;;;;;;;;8.00;99.90;;;;;;5103059;28;20501;-62
2024/04/02 05:49:51;;;;;;;9.70;4.80;;;7.70;99.90;;;;;;5109136;28;19919;-62
2024/04/02 05:52:16;;;;;;;9.73;5.32;;;7.80;99.90;;;;;;5110715;28;20487;-62
2024/04/02 05:54:42;;;;;;;;;;;8.00;99.90;;;;;;5109123;28;20180;-62
2024/04/02 05:57:08;;;;;;;11.43;5.32;;;10.00;99.90;;;;;;5108616;28;20010;-61
2024/04/02 05:59:33;;;;;;;;;;;8.20;99.90;;;;;;5109210;28;20083;-61
2024/04/02 06:01:59;;;;;;;11.02;4.78;;;8.30;99.90;;;;;;5108979;28;20267;-62
2024/04/02 06:04:24;;;;;;;;;;;8.50;99.90;;;;;;5111195;28;20051;-62
2024/04/02 06:06:50;;;;;;;12.15;5.35;;;7.70;99.90;;;;;;5109126;28;19920;-62
2024/04/02 06:09:16;;;;;;;;;;;8.70;99.90;;;;;;5109289;28;20213;-63
2024/04/02 06:11:42;;;;;;;10.25;4.93;;;8.90;99.90;;;;;;5091570;28;20000;-62
2024/04/02 06:14:07;;;;;;;16.95;6.18;;;9.00;99.90;;;;;;5110382;28;20403;-62
2024/04/02 06:16:33;;;;;;;;;;;9.20;99.90;;;;;;5092364;28;20043;-62
2024/04/02 06:18:59;;;;;;;10.02;5.43;;;9.40;99.90;;;;;;5111054;28;20045;-62
2024/04/02 06:21:24;;;;;;;;;;;9.60;99.90;;;;;;5114019;28;20044;-62
2024/04/02 06:23:50;;;;;;;10.35;5.18;;;10.20;99.90;;;;;;5113175;28;19978;-61
2024/04/02 06:26:17;;;;;;;11.48;5.05;;;10.10;98.50;;;;;;5095339;28;20078;-62
2024/04/02 06:28:43;;;;;;;8.50;4.50;;;9.70;97.00;;;;;;5112616;28;20094;-62
2024/04/02 06:31:09;;;;;;;9.65;4.85;;;10.30;95.30;;;;;;5113250;28;20101;-62
2024/04/02 06:33:35;;;;;;;7.82;4.25;;;10.80;94.90;;;;;;5112829;28;20134;-62
2024/04/02 06:36:01;;;;;;;7.60;4.10;;;10.50;93.60;;;;;;5112851;28;20340;-62
2024/04/02 06:38:26;;;;;;;9.75;4.60;;;11.20;93.60;;;;;;5112709;28;20077;-62
2024/04/02 06:40:52;;;;;;;7.55;4.13;;;10.40;93.90;;;;;;5113365;28;20591;-62
2024/04/02 06:43:18;;;;;;;7.93;4.10;;;9.80;92.50;;;;;;5112859;28;20591;-62
2024/04/02 06:45:53;;;;;;;9.75;4.47;;;9.70;92.70;;;;;;5112485;28;20051;-62
2024/04/02 06:48:19;;;;;;;9.65;4.43;;;9.70;93.30;;;;;;5112938;28;20495;-62
2024/04/02 06:50:44;;;;;;;7.05;4.20;;;9.80;93.70;;;;;;5112505;28;20058;-62
2024/04/02 06:53:10;;;;;;;8.95;4.15;;;9.80;93.60;;;;;;5113472;28;20051;-62
2024/04/02 06:55:35;;;;;;;;;;;9.90;94.00;;;;;;5112164;28;20075;-62
2024/04/02 06:58:01;;;;;;;8.13;3.90;;;10.00;94.30;;;;;;5111330;28;19988;-61
2024/04/02 07:00:26;;;;;;;;;;;10.90;93.70;;;;;;5112586;28;20054;-61
2024/04/02 07:02:53;;;;;;;8.43;3.88;;;10.10;92.40;;;;;;5114055;28;19924;-62
2024/04/02 07:05:18;;;;;;;8.75;3.75;;;10.30;91.80;;;;;;5112017;28;20062;-62
2024/04/02 07:07:44;;;;;;;6.90;3.22;;;9.30;93.10;;;;;;5112404;28;20039;-63
2024/04/02 07:10:09;;;;;;;7.40;3.72;;;10.00;91.90;;;;;;5111222;28;20084;-61
2024/04/02 07:12:35;;;;;;;9.88;3.70;;;10.00;92.20;;;;;;5113858;28;20051;-61
2024/04/02 07:15:01;;;;;;;10.90;3.72;;;10.00;92.60;;;;;;5111663;28;20470;-61
2024/04/02 07:17:26;;;;;;;7.47;3.40;;;9.90;93.20;;;;;;5112164;28;20050;-61
2024/04/02 07:19:53;;;;;;;6.45;3.33;;;8.10;93.80;;;;;;5112357;28;20079;-61
2024/04/02 07:22:18;;;;;;;7.53;3.63;;;10.50;93.30;;;;;;5113193;28;20062;-62
2024/04/02 07:24:44;;;;;;;7.78;3.42;;;9.90;93.20;;;;;;5111927;28;20122;-62
2024/04/02 07:27:10;;;;;;;7.40;3.50;;;10.10;93.20;;;;;;5111544;28;20043;-62
2024/04/02 07:29:36;;;;;;;10.73;3.60;;;10.00;92.60;;;;;;5111124;28;20122;-61
2024/04/02 07:32:02;;;;;;;10.60;3.70;;;10.00;92.40;;;;;;5111779;28;20047;-61
2024/04/02 07:34:28;;;;;;;9.98;3.22;;;10.00;92.90;;;;;;5112965;28;20221;-61
2024/04/02 07:36:53;;;;;;;;;;;10.10;93.60;;;;;;5113471;28;20043;-62
2024/04/02 07:39:19;;;;;;;8.63;3.50;;;10.20;93.60;;;;;;5111097;28;20290;-61
2024/04/02 07:41:44;;;;;;;8.65;3.85;;;10.70;94.10;;;;;;5112467;28;20398;-61
2024/04/02 07:44:10;;;;;;;9.73;3.63;;;10.50;92.40;;;;;;5112378;28;20150;-62
2024/04/02 07:46:36;;;;;;;10.35;3.78;;;10.70;92.40;;;;;;5113059;27;20043;-61
2024/04/02 07:49:01;;;;;;;7.00;3.42;;;10.90;91.00;;;;;;5111612;28;20526;-61
2024/04/02 07:51:27;;;;;;;8.07;3.38;;;11.00;86.60;;;;;;5111099;28;20047;-61
2024/04/02 07:53:53;;;;;;;11.57;3.67;;;11.70;83.70;;;;;;5112357;28;20080;-61
2024/04/02 07:56:19;;;;;;;8.35;3.35;;;10.90;81.80;;;;;;5101943;28;20170;-61
2024/04/02 07:58:44;;;;;;;7.00;3.10;;;10.90;82.50;;;;;;5109487;28;20123;-61
2024/04/02 08:01:10;;;;;;;9.90;3.50;;;10.80;85.60;;;;;;5112849;28;20043;-61
2024/04/02 08:03:35;;;;;;;9.75;3.42;;;10.70;85.30;;;;;;5111464;28;20047;-61
2024/04/02 08:06:01;;;;;;;7.30;2.90;;;10.70;86.50;;;;;;5111346;28;20035;-61
2024/04/02 08:08:26;;;;;;;8.73;3.13;;;10.70;85.80;;;;;;5110668;28;20506;-62
2024/04/02 08:10:52;;;;;;;10.70;3.78;;;10.70;85.10;;;;;;5112135;28;20062;-61
2024/04/02 08:13:18;;;;;;;7.25;3.10;;;11.50;87.30;;;;;;5112361;28;20058;-61
2024/04/02 08:15:46;;;;;;;10.32;3.30;;;10.60;89.30;;;;;;5111995;28;20043;-61
2024/04/02 08:18:12;;;;;;;8.27;3.30;;;10.70;86.30;;;;;;5110803;28;20527;-60
2024/04/02 08:20:37;;;;;;;10.55;3.28;;;10.80;87.90;;;;;;5093657;28;20047;-62
2024/04/02 08:23:04;;;;;;;8.35;3.00;;;11.30;87.50;;;;;;5112076;28;20376;-62
2024/04/02 08:25:30;;;;;;;6.60;2.63;;;11.10;83.30;;;;;;5110297;28;20212;-62
2024/04/02 08:27:56;;;;;;;7.60;2.90;;;11.20;84.60;;;;;;5110320;28;20055;-61
2024/04/02 08:30:21;;;;;;;8.30;3.00;;;11.30;83.70;;;;;;5093883;28;20039;-62
2024/04/02 08:32:47;;;;;;;7.65;2.95;;;11.80;77.60;;;;;;5112048;28;20071;-62
2024/04/02 08:35:12;;;;;;;8.20;3.10;;;11.70;72.30;;;;;;5110771;28;20055;-61
2024/04/02 08:37:38;;;;;;;8.20;3.63;;;11.80;71.10;;;;;;5110258;28;20055;-62
2024/04/02 08:40:04;;;;;;;7.65;3.53;;;13.20;73.30;;;;;;5092605;28;20047;-61
2024/04/02 08:42:30;;;;;;;9.80;2.88;;;12.10;69.80;;;;;;5092789;28;20052;-62
2024/04/02 08:44:56;;;;;;;6.45;3.10;;;12.80;64.00;;;;;;5111487;28;20059;-62
2024/04/02 08:47:24;;;;;;;7.53;3.50;;;12.50;59.30;;;;;;5110976;28;20076;-62
2024/04/02 08:49:51;;;;;;;9.57;3.40;;;12.70;57.30;;;;;;5109977;28;20436;-63
2024/04/02 08:52:17;;;;;;;9.38;3.20;;;12.70;53.20;;;;;;5110301;28;20047;-62
2024/04/02 08:54:42;;;;;;;8.60;3.33;;;13.10;56.10;;;;;;5111708;28;20043;-63
2024/04/02 08:57:08;;;;;;;9.68;3.30;;;13.50;58.90;;;;;;5100689;28;20103;-62
2024/04/02 08:59:37;;;;;;;8.98;3.35;;;13.80;58.00;;;;;;5109746;28;20161;-62
2024/04/02 09:02:04;;;;;;;9.60;3.53;;;13.40;63.00;;;;;;5076105;28;20078;-62
2024/04/02 09:04:32;;;;;;;10.30;3.50;;;14.60;49.60;;;;;;5110476;28;20139;-62
2024/04/02 09:06:58;;;;;;;8.98;3.60;;;14.70;46.50;;;;;;5109717;28;20054;-63
2024/04/02 09:09:25;;;;;;;8.52;3.45;;;15.50;50.30;;;;;;5111452;28;20363;-63
2024/04/02 09:11:51;;;;;;;8.82;3.10;;;16.00;30.10;;;;;;5109352;28;20136;-63
2024/04/02 09:14:18;;;;;;;8.50;3.33;;;16.30;24.60;;;;;;5109610;28;20050;-63
2024/04/02 09:16:44;;;;;;;9.60;3.35;;;16.40;22.20;;;;;;5109720;28;20044;-62
2024/04/02 09:19:10;;;;;;;7.10;2.85;;;16.40;1.00;;;;;;5109769;28;20041;-62
2024/04/02 09:21:35;;;;;;;8.80;3.22;;;15.80;1.00;;;;;;5093034;28;20046;-62
2024/04/02 09:24:01;;;;;;;6.60;3.17;;;15.50;1.00;;;;;;5109415;28;21792;-62
2024/04/02 09:26:27;;;;;;;9.30;3.05;;;15.20;6.00;;;;;;5109294;28;20047;-62
2024/04/02 09:28:52;;;;;;;11.57;3.05;;;16.20;18.00;;;;;;5109375;28;20055;-62
2024/04/02 09:31:18;;;;;;;9.95;3.20;;;;;;;;;;5111124;28;20078;-62
2024/04/02 09:33:51;;;;;;;6.72;3.10;;;14.80;17.80;;;;;;5109939;28;20087;-63
2024/04/02 09:36:43;;;;;;;6.47;3.08;;;15.20;12.00;;;;;;5110582;28;20114;-61
2024/04/02 09:39:11;;;;;;;7.00;3.10;;;15.00;15.40;;;;;;5109233;28;20052;-62
2024/04/02 09:41:42;;;;;;;9.80;3.17;;;14.80;10.90;;;;;;5108854;28;20047;-61
2024/04/02 09:44:10;;;;;;;7.65;3.42;;;15.00;16.00;;;;;;5091813;28;20082;-62
2024/04/02 09:46:38;;;;;;;8.00;3.13;;;14.50;16.10;;;;;;5109271;28;20047;-62
2024/04/02 09:49:05;;;;;;;8.98;3.50;;;14.70;15.00;;;;;;5109269;28;20058;-62
2024/04/02 09:51:31;;;;;;;9.02;3.47;;;14.70;4.50;;;;;;5108959;28;20039;-62
2024/04/02 09:53:57;;;;;;;9.20;3.88;;;14.60;8.00;;;;;;5109409;27;20374;-62
2024/04/02 09:56:23;;;;;;;7.20;2.92;;;14.80;12.50;;;;;;5108188;28;20075;-62
2024/04/02 09:58:50;;;;;;;10.48;3.88;;;15.10;9.80;;;;;;5110169;28;20122;-62
2024/04/02 10:01:24;;;;;;;7.45;3.47;;;15.20;15.60;;;;;;5092309;28;20079;-62
2024/04/02 10:03:56;;;;;;;11.73;4.10;;;15.10;14.50;;;;;;5109168;28;20479;-62
2024/04/02 10:06:22;;;;;;;8.90;3.70;;;15.40;8.00;;;;;;5109048;28;20486;-62
2024/04/02 10:08:59;;;;;;;17.77;4.60;;;15.60;12.20;;;;;;5110507;28;20039;-62
2024/04/02 10:11:44;;;;;;;8.98;4.05;;;15.70;9.20;;;;;;5108515;28;20498;-62
2024/04/02 10:14:16;;;;;;;;;;;15.70;4.00;;;;;;5109329;28;20082;-62
2024/04/02 10:16:44;;;;;;;7.80;3.63;;;15.40;1.00;;;;;;5110324;28;20375;-62
2024/04/02 10:19:16;;;;;;;10.82;4.10;;;14.90;1.00;;;;;;5110296;28;20063;-60
2024/04/02 10:21:43;;;;;;;7.88;3.80;;;14.60;1.00;;;;;;5109118;28;20146;-62
2024/04/02 10:24:11;;;;;;;10.23;4.72;;;14.50;6.00;;;;;;5108930;28;20047;-63
2024/04/02 10:26:41;;;;;;;10.15;4.53;;;14.10;4.40;;;;;;5108320;28;20039;-62
2024/04/02 10:29:07;;;;;;;15.10;4.32;;;13.90;5.80;;;;;;5108481;28;20051;-61
2024/04/02 10:31:36;;;;;;;7.47;3.47;;;13.80;7.00;;;;;;5110540;28;20039;-63
2024/04/02 10:34:11;;;;;;;10.70;3.80;;;14.50;9.20;;;;;;5108870;28;20128;-62
2024/04/02 10:36:41;;;;;;;9.98;4.57;;;13.70;10.00;;;;;;5109378;28;20047;-61
2024/04/02 10:39:11;;;;;;;8.00;3.90;;;13.60;12.40;;;;;;5108389;28;20057;-62
2024/04/02 10:41:37;;;;;;;20.00;4.90;;;13.60;14.30;;;;;;5109801;28;20046;-62
2024/04/02 10:44:17;;;;;;;9.38;4.25;;;13.60;14.00;;;;;;5108766;28;20048;-62
2024/04/02 10:46:43;;;;;;;11.07;4.40;;;14.20;10.40;;;;;;5109132;28;20132;-62
2024/04/02 10:49:09;;;;;;;11.32;4.25;;;14.30;15.70;;;;;;5110365;28;20140;-62
2024/04/02 10:51:35;;;;;;;8.77;4.72;;;13.70;15.30;;;;;;5108353;28;20048;-62
2024/04/02 10:54:00;;;;;;;9.30;4.50;;;13.70;13.60;;;;;;5108661;28;20043;-62
2024/04/02 10:56:28;;;;;;;9.50;4.43;;;13.80;13.40;;;;;;5107674;28;20456;-61
2024/04/02 10:58:54;;;;;;;9.38;4.50;;;13.80;16.30;;;;;;5094111;28;20051;-62
2024/04/02 11:01:21;;;;;;;8.77;3.90;;;13.80;15.20;;;;;;5108785;28;20043;-62
2024/04/02 11:03:51;;;;;;;8.02;3.70;;;13.90;17.20;;;;;;5108458;28;20044;-62
2024/04/02 11:06:17;;;;;;;9.80;3.88;;;13.90;17.90;;;;;;5112041;28;20084;-62
2024/04/02 11:08:44;;;;;;;12.75;4.22;;;14.10;16.70;;;;;;5112250;28;20154;-62
2024/04/02 11:11:20;;;;;;;9.18;4.22;;;13.70;12.90;;;;;;5112015;28;20078;-62
2024/04/02 11:13:46;;;;;;;12.43;3.97;;;13.70;11.80;;;;;;5111929;28;20052;-62
2024/04/02 11:16:11;;;;;;;9.85;3.92;;;13.70;14.70;;;;;;5113486;28;20036;-62
2024/04/02 11:18:38;;;;;;;8.73;3.85;;;13.70;12.20;;;;;;5111905;28;20048;-62
2024/04/02 11:21:04;;;;;;;11.88;4.10;;;14.40;16.10;;;;;;5112305;28;20185;-62
2024/04/02 11:26:20;;;;;;;9.10;3.63;;;13.70;18.50;;;;;;5094731;28;20044;-63
2024/04/02 11:28:46;;;;;;;7.55;2.90;;;13.80;12.40;;;;;;5107041;28;20233;-62
2024/04/02 11:31:13;;;;;;;8.25;3.00;;;13.70;10.40;;;;;;5111754;28;20135;-61
2024/04/02 11:33:39;;;;;;;9.80;2.90;;;13.60;13.10;;;;;;5112285;28;20536;-62
2024/04/02 11:36:07;;;;;;;7.20;2.80;;;14.20;12.80;;;;;;5111456;28;20044;-62
2024/04/02 11:38:36;;;;;;;9.10;2.72;;;13.50;13.40;;;;;;5112993;28;20111;-62
2024/04/02 11:41:05;;;;;;;5.57;2.67;;;13.50;9.30;;;;;;5110995;28;20047;-62
2024/04/02 11:43:31;;;;;;;8.35;2.92;;;13.50;6.50;;;;;;5094696;28;20051;-62
2024/04/02 11:45:57;;;;;;;6.60;2.60;;;13.70;9.40;;;;;;5112468;28;20071;-62
2024/04/02 11:48:23;;;;;;;5.60;2.55;;;13.40;9.90;;;;;;5111751;28;20078;-62
2024/04/02 11:50:48;;;;;;;5.70;2.25;;;13.40;8.60;;;;;;5094713;28;20051;-62
2024/04/02 11:53:29;;;;;;;9.75;2.55;;;13.30;8.90;;;;;;5111184;28;20042;-62
2024/04/02 11:55:55;;;;;;;7.53;2.35;;;13.10;7.50;;;;;;5112148;28;20084;-62
2024/04/02 12:01:08;;;;;;;5.68;2.42;;;13.00;8.80;;;;;;5112994;28;20044;-62
2024/04/02 12:03:33;;;;;;;8.32;2.60;;;13.00;13.90;;;;;;5111565;28;20055;-62
2024/04/02 12:05:59;;;;;;;9.23;2.78;;;13.20;10.70;;;;;;5094236;28;20073;-62
2024/04/02 12:08:25;;;;;;;11.68;2.65;;;13.60;16.00;;;;;;5110885;28;20054;-62
2024/04/02 12:10:51;;;;;;;8.60;2.60;;;13.80;14.30;;;;;;5110448;28;20050;-62
2024/04/02 12:13:28;;;;;;;5.43;2.22;;;14.50;11.20;;;;;;5110614;28;20043;-62
2024/04/02 12:15:55;;;;;;;6.63;2.13;;;14.10;12.40;;;;;;5111071;28;20035;-62
2024/04/02 12:18:21;;;;;;;5.25;2.08;;;14.30;14.70;;;;;;5111209;28;20048;-62
2024/04/02 12:20:47;;;;;;;6.32;2.00;;;14.90;17.00;;;;;;5110971;28;20052;-63
2024/04/02 12:23:12;;;;;;;8.52;1.88;;;14.90;16.40;;;;;;5110974;28;20047;-62
2024/04/02 12:25:38;;;;;;;7.75;2.10;;;15.20;7.80;;;;;;5111001;28;20056;-62
2024/04/02 12:28:04;;;;;;;9.18;2.08;;;15.80;8.50;;;;;;5110630;28;20096;-62
2024/04/02 12:30:29;;;;;;;9.98;2.10;;;15.20;2.10;;;;;;5094114;28;20047;-63
2024/04/02 12:32:55;;;;;;;8.65;2.20;;;15.10;1.00;;;;;;5098159;28;20081;-62
2024/04/02 12:35:20;;;;;;;6.65;1.50;;;15.00;1.00;;;;;;5093529;28;20051;-62
2024/04/02 12:37:47;;;;;;;5.53;1.80;;;14.90;1.00;;;;;;5110661;28;20428;-62
2024/04/02 12:40:13;;;;;;;7.18;2.05;;;14.70;1.00;;;;;;5109946;28;20834;-62
2024/04/02 12:42:38;;;;;;;7.55;2.05;;;14.50;1.00;;;;;;5110301;28;20071;-62
2024/04/02 12:45:05;;;;;;;9.98;2.20;;;14.40;1.00;;;;;;5093142;28;20092;-63
2024/04/02 12:47:31;;;;;;;4.88;1.70;;;14.20;1.00;;;;;;5109629;28;20547;-60
2024/04/02 12:49:57;;;;;;;5.03;1.48;;;14.50;1.00;;;;;;5109988;28;20110;-61
2024/04/02 12:52:23;;;;;;;3.75;1.50;;;14.10;1.00;;;;;;5110550;28;20047;-62
2024/04/02 12:54:49;;;;;;;5.13;1.80;;;14.00;1.00;;;;;;5110206;28;20623;-62
2024/04/02 12:57:14;;;;;;;8.00;2.03;;;13.70;1.00;;;;;;5110251;28;20100;-62
2024/04/02 12:59:40;;;;;;;5.45;2.10;;;13.60;1.00;;;;;;5109736;28;20051;-62
2024/04/02 13:02:06;;;;;;;3.95;2.00;;;13.50;1.00;;;;;;5092827;28;20035;-62
2024/04/02 13:04:31;;;;;;;4.53;2.20;;;13.30;1.00;;;;;;5110530;28;20044;-61
2024/04/02 13:06:57;;;;;;;5.38;2.00;;;13.40;4.00;;;;;;5111582;28;20043;-61
2024/04/02 13:09:23;;;;;;;5.22;2.17;;;13.10;3.80;;;;;;5110965;28;20062;-61
2024/04/02 13:11:48;;;;;;;5.53;2.22;;;13.20;8.20;;;;;;5108779;28;20051;-62